sensor_id;sensor_type;location;lat;lon;timestamp;P1;durP1;ratioP1;P2;durP2;ratioP2
10191;SDS011;17580;50.850;4.504;2023-07-09T00:00:59;5.37;;;3.97;;
10191;SDS011;17580;50.850;4.504;2023-07-09T00:03:26;5.43;;;3.30;;
10191;SDS011;17580;50.850;4.504;2023-07-09T00:05:55;4.10;;;3.77;;
10191;SDS011;17580;50.850;4.504;2023-07-09T00:08:24;4.17;;;3.53;;
10191;SDS011;17580;50.850;4.504;2023-07-09T00:10:53;3.87;;;3.57;;
10191;SDS011;17580;50.850;4.504;2023-07-09T00:13:20;5.07;;;3.57;;
10191;SDS011;17580;50.850;4.504;2023-07-09T00:15:47;3.40;;;3.10;;
10191;SDS011;17580;50.850;4.504;2023-07-09T00:18:15;3.67;;;3.20;;
10191;SDS011;17580;50.850;4.504;2023-07-09T00:20:42;3.23;;;2.87;;
10191;SDS011;17580;50.850;4.504;2023-07-09T00:23:14;3.50;;;3.20;;
10191;SDS011;17580;50.850;4.504;2023-07-09T00:25:45;3.50;;;3.20;;
10191;SDS011;17580;50.850;4.504;2023-07-09T00:28:12;3.97;;;3.67;;
10191;SDS011;17580;50.850;4.504;2023-07-09T00:30:40;3.97;;;3.70;;
10191;SDS011;17580;50.850;4.504;2023-07-09T00:33:10;4.07;;;3.67;;
10191;SDS011;17580;50.850;4.504;2023-07-09T00:35:39;3.37;;;3.07;;
10191;SDS011;17580;50.850;4.504;2023-07-09T00:38:08;4.00;;;3.60;;
10191;SDS011;17580;50.850;4.504;2023-07-09T00:40:43;3.53;;;3.27;;
10191;SDS011;17580;50.850;4.504;2023-07-09T00:43:13;4.37;;;3.97;;
10191;SDS011;17580;50.850;4.504;2023-07-09T00:45:42;5.63;;;3.73;;
10191;SDS011;17580;50.850;4.504;2023-07-09T00:48:09;3.80;;;3.50;;
10191;SDS011;17580;50.850;4.504;2023-07-09T00:50:39;6.37;;;4.17;;
10191;SDS011;17580;50.850;4.504;2023-07-09T00:53:12;3.87;;;3.57;;
10191;SDS011;17580;50.850;4.504;2023-07-09T00:55:46;3.60;;;3.30;;
10191;SDS011;17580;50.850;4.504;2023-07-09T00:58:16;4.30;;;3.90;;
10191;SDS011;17580;50.850;4.504;2023-07-09T01:00:45;3.93;;;3.63;;
10191;SDS011;17580;50.850;4.504;2023-07-09T01:03:15;5.63;;;3.23;;
10191;SDS011;17580;50.850;4.504;2023-07-09T01:05:45;4.50;;;4.10;;
10191;SDS011;17580;50.850;4.504;2023-07-09T01:08:16;4.43;;;3.90;;
10191;SDS011;17580;50.850;4.504;2023-07-09T01:10:45;8.67;;;4.10;;
10191;SDS011;17580;50.850;4.504;2023-07-09T01:13:12;5.40;;;4.00;;
10191;SDS011;17580;50.850;4.504;2023-07-09T01:15:40;5.57;;;4.53;;
10191;SDS011;17580;50.850;4.504;2023-07-09T01:18:08;10.93;;;4.80;;
10191;SDS011;17580;50.850;4.504;2023-07-09T01:20:37;4.70;;;4.17;;
10191;SDS011;17580;50.850;4.504;2023-07-09T01:23:06;4.30;;;4.00;;
10191;SDS011;17580;50.850;4.504;2023-07-09T01:25:34;6.00;;;4.60;;
10191;SDS011;17580;50.850;4.504;2023-07-09T01:28:02;5.17;;;4.67;;
10191;SDS011;17580;50.850;4.504;2023-07-09T01:30:31;6.37;;;5.10;;
10191;SDS011;17580;50.850;4.504;2023-07-09T01:33:00;5.73;;;4.53;;
10191;SDS011;17580;50.850;4.504;2023-07-09T01:35:28;4.50;;;3.90;;
10191;SDS011;17580;50.850;4.504;2023-07-09T01:37:55;5.67;;;4.90;;
10191;SDS011;17580;50.850;4.504;2023-07-09T01:40:25;4.93;;;4.43;;
10191;SDS011;17580;50.850;4.504;2023-07-09T01:42:54;5.13;;;4.63;;
10191;SDS011;17580;50.850;4.504;2023-07-09T01:45:23;6.43;;;4.83;;
10191;SDS011;17580;50.850;4.504;2023-07-09T01:47:51;6.27;;;4.57;;
10191;SDS011;17580;50.850;4.504;2023-07-09T01:50:20;5.83;;;5.23;;
10191;SDS011;17580;50.850;4.504;2023-07-09T01:52:49;5.57;;;5.00;;
10191;SDS011;17580;50.850;4.504;2023-07-09T01:55:16;5.67;;;4.33;;
10191;SDS011;17580;50.850;4.504;2023-07-09T01:57:45;4.83;;;4.43;;
10191;SDS011;17580;50.850;4.504;2023-07-09T02:00:14;4.83;;;4.43;;
10191;SDS011;17580;50.850;4.504;2023-07-09T02:02:42;7.33;;;4.97;;
10191;SDS011;17580;50.850;4.504;2023-07-09T02:05:11;4.60;;;4.20;;
10191;SDS011;17580;50.850;4.504;2023-07-09T02:07:39;5.30;;;4.90;;
10191;SDS011;17580;50.850;4.504;2023-07-09T02:10:06;4.80;;;4.43;;
10191;SDS011;17580;50.850;4.504;2023-07-09T02:12:33;4.73;;;4.23;;
10191;SDS011;17580;50.850;4.504;2023-07-09T02:15:02;5.30;;;4.80;;
10191;SDS011;17580;50.850;4.504;2023-07-09T02:17:30;4.27;;;3.90;;
10191;SDS011;17580;50.850;4.504;2023-07-09T02:19:57;4.53;;;4.23;;
10191;SDS011;17580;50.850;4.504;2023-07-09T02:22:24;4.90;;;4.53;;
10191;SDS011;17580;50.850;4.504;2023-07-09T02:24:51;5.00;;;4.60;;
10191;SDS011;17580;50.850;4.504;2023-07-09T02:27:19;5.40;;;4.83;;
10191;SDS011;17580;50.850;4.504;2023-07-09T02:29:47;4.77;;;4.37;;
10191;SDS011;17580;50.850;4.504;2023-07-09T02:32:18;4.37;;;3.97;;
10191;SDS011;17580;50.850;4.504;2023-07-09T02:34:46;5.33;;;4.93;;
10191;SDS011;17580;50.850;4.504;2023-07-09T02:37:14;4.57;;;4.20;;
10191;SDS011;17580;50.850;4.504;2023-07-09T02:39:41;5.23;;;4.63;;
10191;SDS011;17580;50.850;4.504;2023-07-09T02:42:09;5.23;;;4.83;;
10191;SDS011;17580;50.850;4.504;2023-07-09T02:44:37;4.57;;;4.27;;
10191;SDS011;17580;50.850;4.504;2023-07-09T02:47:04;4.50;;;4.13;;
10191;SDS011;17580;50.850;4.504;2023-07-09T02:49:33;4.80;;;4.30;;
10191;SDS011;17580;50.850;4.504;2023-07-09T02:52:00;5.23;;;4.83;;
10191;SDS011;17580;50.850;4.504;2023-07-09T02:54:28;5.23;;;4.73;;
10191;SDS011;17580;50.850;4.504;2023-07-09T02:56:55;4.77;;;4.20;;
10191;SDS011;17580;50.850;4.504;2023-07-09T02:59:22;4.60;;;4.13;;
10191;SDS011;17580;50.850;4.504;2023-07-09T03:01:51;4.83;;;4.43;;
10191;SDS011;17580;50.850;4.504;2023-07-09T03:04:19;4.27;;;3.97;;
10191;SDS011;17580;50.850;4.504;2023-07-09T03:06:47;5.10;;;4.70;;
10191;SDS011;17580;50.850;4.504;2023-07-09T03:09:15;4.87;;;4.10;;
10191;SDS011;17580;50.850;4.504;2023-07-09T03:11:42;5.83;;;3.80;;
10191;SDS011;17580;50.850;4.504;2023-07-09T03:14:10;4.80;;;4.23;;
10191;SDS011;17580;50.850;4.504;2023-07-09T03:16:37;6.13;;;4.17;;
10191;SDS011;17580;50.850;4.504;2023-07-09T03:19:04;4.93;;;4.10;;
10191;SDS011;17580;50.850;4.504;2023-07-09T03:21:32;4.23;;;3.87;;
10191;SDS011;17580;50.850;4.504;2023-07-09T03:24:00;3.80;;;3.50;;
10191;SDS011;17580;50.850;4.504;2023-07-09T03:26:28;4.40;;;4.07;;
10191;SDS011;17580;50.850;4.504;2023-07-09T03:28:55;4.60;;;4.20;;
10191;SDS011;17580;50.850;4.504;2023-07-09T03:31:23;5.33;;;4.13;;
10191;SDS011;17580;50.850;4.504;2023-07-09T03:33:52;4.80;;;4.30;;
10191;SDS011;17580;50.850;4.504;2023-07-09T03:36:19;5.17;;;3.67;;
10191;SDS011;17580;50.850;4.504;2023-07-09T03:38:47;4.67;;;3.97;;
10191;SDS011;17580;50.850;4.504;2023-07-09T03:41:15;3.70;;;3.37;;
10191;SDS011;17580;50.850;4.504;2023-07-09T03:43:43;4.20;;;3.90;;
10191;SDS011;17580;50.850;4.504;2023-07-09T03:46:10;4.40;;;4.00;;
10191;SDS011;17580;50.850;4.504;2023-07-09T03:48:37;6.70;;;4.20;;
10191;SDS011;17580;50.850;4.504;2023-07-09T03:51:05;4.47;;;4.00;;
10191;SDS011;17580;50.850;4.504;2023-07-09T03:53:32;4.40;;;4.10;;
10191;SDS011;17580;50.850;4.504;2023-07-09T03:55:59;4.67;;;3.90;;
10191;SDS011;17580;50.850;4.504;2023-07-09T03:58:28;4.93;;;4.40;;
10191;SDS011;17580;50.850;4.504;2023-07-09T04:00:55;4.37;;;4.00;;
10191;SDS011;17580;50.850;4.504;2023-07-09T04:03:23;4.77;;;3.67;;
10191;SDS011;17580;50.850;4.504;2023-07-09T04:05:51;5.27;;;4.33;;
10191;SDS011;17580;50.850;4.504;2023-07-09T04:08:18;4.03;;;3.63;;
10191;SDS011;17580;50.850;4.504;2023-07-09T04:10:46;4.70;;;3.70;;
10191;SDS011;17580;50.850;4.504;2023-07-09T04:13:13;4.40;;;4.10;;
10191;SDS011;17580;50.850;4.504;2023-07-09T04:15:42;3.70;;;3.40;;
10191;SDS011;17580;50.850;4.504;2023-07-09T04:18:09;3.97;;;3.73;;
10191;SDS011;17580;50.850;4.504;2023-07-09T04:20:36;4.40;;;3.90;;
10191;SDS011;17580;50.850;4.504;2023-07-09T04:23:06;3.97;;;3.67;;
10191;SDS011;17580;50.850;4.504;2023-07-09T04:25:33;3.77;;;3.47;;
10191;SDS011;17580;50.850;4.504;2023-07-09T04:28:00;3.80;;;3.57;;
10191;SDS011;17580;50.850;4.504;2023-07-09T04:30:27;3.90;;;3.60;;
10191;SDS011;17580;50.850;4.504;2023-07-09T04:32:56;4.87;;;4.30;;
10191;SDS011;17580;50.850;4.504;2023-07-09T04:35:24;4.07;;;3.67;;
10191;SDS011;17580;50.850;4.504;2023-07-09T04:37:51;3.77;;;3.47;;
10191;SDS011;17580;50.850;4.504;2023-07-09T04:40:18;3.50;;;3.30;;
10191;SDS011;17580;50.850;4.504;2023-07-09T04:42:45;6.47;;;3.80;;
10191;SDS011;17580;50.850;4.504;2023-07-09T04:45:12;4.03;;;3.73;;
10191;SDS011;17580;50.850;4.504;2023-07-09T04:47:39;4.43;;;3.40;;
10191;SDS011;17580;50.850;4.504;2023-07-09T04:50:08;3.80;;;3.50;;
10191;SDS011;17580;50.850;4.504;2023-07-09T04:52:36;5.53;;;3.57;;
10191;SDS011;17580;50.850;4.504;2023-07-09T04:55:03;4.40;;;4.00;;
10191;SDS011;17580;50.850;4.504;2023-07-09T04:57:32;4.27;;;3.97;;
10191;SDS011;17580;50.850;4.504;2023-07-09T04:59:59;4.03;;;3.57;;
10191;SDS011;17580;50.850;4.504;2023-07-09T05:02:28;3.97;;;3.67;;
10191;SDS011;17580;50.850;4.504;2023-07-09T05:04:55;3.87;;;3.60;;
10191;SDS011;17580;50.850;4.504;2023-07-09T05:07:23;4.33;;;3.50;;
10191;SDS011;17580;50.850;4.504;2023-07-09T05:09:50;7.23;;;3.50;;
10191;SDS011;17580;50.850;4.504;2023-07-09T05:12:18;4.27;;;3.87;;
10191;SDS011;17580;50.850;4.504;2023-07-09T05:14:46;4.00;;;3.70;;
10191;SDS011;17580;50.850;4.504;2023-07-09T05:17:13;4.27;;;3.87;;
10191;SDS011;17580;50.850;4.504;2023-07-09T05:19:40;5.67;;;3.90;;
10191;SDS011;17580;50.850;4.504;2023-07-09T05:22:07;3.60;;;3.30;;
10191;SDS011;17580;50.850;4.504;2023-07-09T05:24:36;4.30;;;4.00;;
10191;SDS011;17580;50.850;4.504;2023-07-09T05:27:03;4.77;;;3.70;;
10191;SDS011;17580;50.850;4.504;2023-07-09T05:29:31;3.90;;;3.63;;
10191;SDS011;17580;50.850;4.504;2023-07-09T05:31:58;3.93;;;3.63;;
10191;SDS011;17580;50.850;4.504;2023-07-09T05:34:25;4.23;;;3.83;;
10191;SDS011;17580;50.850;4.504;2023-07-09T05:36:53;4.20;;;3.80;;
10191;SDS011;17580;50.850;4.504;2023-07-09T05:39:20;4.17;;;3.77;;
10191;SDS011;17580;50.850;4.504;2023-07-09T05:41:48;4.23;;;3.83;;
10191;SDS011;17580;50.850;4.504;2023-07-09T05:44:15;4.13;;;3.73;;
10191;SDS011;17580;50.850;4.504;2023-07-09T05:46:42;4.00;;;3.70;;
10191;SDS011;17580;50.850;4.504;2023-07-09T05:49:09;3.73;;;3.40;;
10191;SDS011;17580;50.850;4.504;2023-07-09T05:51:36;4.80;;;4.30;;
10191;SDS011;17580;50.850;4.504;2023-07-09T05:54:03;5.20;;;3.87;;
10191;SDS011;17580;50.850;4.504;2023-07-09T05:56:30;5.33;;;4.00;;
10191;SDS011;17580;50.850;4.504;2023-07-09T05:58:59;4.53;;;3.03;;
10191;SDS011;17580;50.850;4.504;2023-07-09T06:01:26;4.20;;;3.90;;
10191;SDS011;17580;50.850;4.504;2023-07-09T06:03:53;3.97;;;3.50;;
10191;SDS011;17580;50.850;4.504;2023-07-09T06:06:21;3.70;;;3.40;;
10191;SDS011;17580;50.850;4.504;2023-07-09T06:08:49;3.60;;;3.30;;
10191;SDS011;17580;50.850;4.504;2023-07-09T06:11:16;3.70;;;3.40;;
10191;SDS011;17580;50.850;4.504;2023-07-09T06:13:44;3.57;;;3.30;;
10191;SDS011;17580;50.850;4.504;2023-07-09T06:16:12;3.77;;;3.57;;
10191;SDS011;17580;50.850;4.504;2023-07-09T06:18:39;3.50;;;3.27;;
10191;SDS011;17580;50.850;4.504;2023-07-09T06:21:06;4.40;;;3.80;;
10191;SDS011;17580;50.850;4.504;2023-07-09T06:23:36;6.47;;;3.63;;
10191;SDS011;17580;50.850;4.504;2023-07-09T06:26:03;3.33;;;3.13;;
10191;SDS011;17580;50.850;4.504;2023-07-09T06:28:30;3.60;;;3.30;;
10191;SDS011;17580;50.850;4.504;2023-07-09T06:30:58;3.40;;;3.20;;
10191;SDS011;17580;50.850;4.504;2023-07-09T06:33:27;4.73;;;3.80;;
10191;SDS011;17580;50.850;4.504;2023-07-09T06:35:55;3.70;;;3.40;;
10191;SDS011;17580;50.850;4.504;2023-07-09T06:38:24;4.10;;;3.73;;
10191;SDS011;17580;50.850;4.504;2023-07-09T06:40:51;3.70;;;3.47;;
10191;SDS011;17580;50.850;4.504;2023-07-09T06:43:18;5.50;;;4.10;;
10191;SDS011;17580;50.850;4.504;2023-07-09T06:45:48;4.63;;;4.13;;
10191;SDS011;17580;50.850;4.504;2023-07-09T06:48:16;4.13;;;3.53;;
10191;SDS011;17580;50.850;4.504;2023-07-09T06:50:44;5.00;;;3.70;;
10191;SDS011;17580;50.850;4.504;2023-07-09T06:53:11;5.97;;;4.00;;
10191;SDS011;17580;50.850;4.504;2023-07-09T06:55:38;4.37;;;3.97;;
10191;SDS011;17580;50.850;4.504;2023-07-09T06:58:06;9.50;;;4.70;;
10191;SDS011;17580;50.850;4.504;2023-07-09T07:00:33;5.77;;;4.23;;
10191;SDS011;17580;50.850;4.504;2023-07-09T07:03:01;5.97;;;4.67;;
10191;SDS011;17580;50.850;4.504;2023-07-09T07:05:28;3.83;;;3.53;;
10191;SDS011;17580;50.850;4.504;2023-07-09T07:07:57;5.13;;;4.40;;
10191;SDS011;17580;50.850;4.504;2023-07-09T07:10:25;5.63;;;4.17;;
10191;SDS011;17580;50.850;4.504;2023-07-09T07:12:52;8.13;;;4.73;;
10191;SDS011;17580;50.850;4.504;2023-07-09T07:15:20;5.67;;;4.83;;
10191;SDS011;17580;50.850;4.504;2023-07-09T07:17:47;4.43;;;4.07;;
10191;SDS011;17580;50.850;4.504;2023-07-09T07:20:15;4.60;;;4.20;;
10191;SDS011;17580;50.850;4.504;2023-07-09T07:22:42;6.03;;;4.33;;
10191;SDS011;17580;50.850;4.504;2023-07-09T07:25:11;6.80;;;4.53;;
10191;SDS011;17580;50.850;4.504;2023-07-09T07:27:38;4.77;;;4.23;;
10191;SDS011;17580;50.850;4.504;2023-07-09T07:30:06;5.67;;;4.13;;
10191;SDS011;17580;50.850;4.504;2023-07-09T07:32:35;7.47;;;4.30;;
10191;SDS011;17580;50.850;4.504;2023-07-09T07:35:03;5.67;;;4.30;;
10191;SDS011;17580;50.850;4.504;2023-07-09T07:37:31;5.63;;;4.70;;
10191;SDS011;17580;50.850;4.504;2023-07-09T07:39:58;5.33;;;4.20;;
10191;SDS011;17580;50.850;4.504;2023-07-09T07:42:27;4.70;;;4.30;;
10191;SDS011;17580;50.850;4.504;2023-07-09T07:44:54;5.70;;;5.13;;
10191;SDS011;17580;50.850;4.504;2023-07-09T07:47:21;5.47;;;4.90;;
10191;SDS011;17580;50.850;4.504;2023-07-09T07:49:48;5.83;;;5.20;;
10191;SDS011;17580;50.850;4.504;2023-07-09T07:52:15;4.87;;;4.37;;
10191;SDS011;17580;50.850;4.504;2023-07-09T07:54:42;5.50;;;4.30;;
10191;SDS011;17580;50.850;4.504;2023-07-09T07:57:09;5.57;;;5.07;;
10191;SDS011;17580;50.850;4.504;2023-07-09T07:59:38;7.47;;;6.80;;
10191;SDS011;17580;50.850;4.504;2023-07-09T08:02:06;7.63;;;6.80;;
10191;SDS011;17580;50.850;4.504;2023-07-09T08:04:37;11.03;;;8.00;;
10191;SDS011;17580;50.850;4.504;2023-07-09T08:07:05;8.07;;;7.27;;
10191;SDS011;17580;50.850;4.504;2023-07-09T08:09:33;8.43;;;7.53;;
10191;SDS011;17580;50.850;4.504;2023-07-09T08:12:00;8.30;;;7.50;;
10191;SDS011;17580;50.850;4.504;2023-07-09T08:14:33;7.93;;;7.13;;
10191;SDS011;17580;50.850;4.504;2023-07-09T08:17:02;6.90;;;5.83;;
10191;SDS011;17580;50.850;4.504;2023-07-09T08:19:30;6.73;;;5.67;;
10191;SDS011;17580;50.850;4.504;2023-07-09T08:21:58;9.57;;;8.37;;
10191;SDS011;17580;50.850;4.504;2023-07-09T08:24:25;11.43;;;9.87;;
10191;SDS011;17580;50.850;4.504;2023-07-09T08:26:52;12.33;;;10.60;;
10191;SDS011;17580;50.850;4.504;2023-07-09T08:29:18;12.47;;;10.90;;
10191;SDS011;17580;50.850;4.504;2023-07-09T08:31:45;10.50;;;9.40;;
10191;SDS011;17580;50.850;4.504;2023-07-09T08:34:14;10.10;;;9.10;;
10191;SDS011;17580;50.850;4.504;2023-07-09T08:36:41;9.53;;;8.63;;
10191;SDS011;17580;50.850;4.504;2023-07-09T08:39:09;13.43;;;10.03;;
10191;SDS011;17580;50.850;4.504;2023-07-09T08:41:38;14.20;;;12.63;;
10191;SDS011;17580;50.850;4.504;2023-07-09T08:44:11;14.03;;;12.10;;
10191;SDS011;17580;50.850;4.504;2023-07-09T08:46:59;12.73;;;11.20;;
10191;SDS011;17580;50.850;4.504;2023-07-09T08:49:33;13.63;;;12.17;;
10191;SDS011;17580;50.850;4.504;2023-07-09T08:52:09;12.90;;;8.50;;
10191;SDS011;17580;50.850;4.504;2023-07-09T08:54:41;13.30;;;11.87;;
10191;SDS011;17580;50.850;4.504;2023-07-09T08:57:17;11.83;;;10.40;;
10191;SDS011;17580;50.850;4.504;2023-07-09T08:59:47;16.83;;;15.00;;
10191;SDS011;17580;50.850;4.504;2023-07-09T09:02:17;13.97;;;11.60;;
10191;SDS011;17580;50.850;4.504;2023-07-09T09:04:55;17.13;;;12.70;;
10191;SDS011;17580;50.850;4.504;2023-07-09T09:07:24;14.70;;;12.77;;
10191;SDS011;17580;50.850;4.504;2023-07-09T09:10:02;12.80;;;10.93;;
10191;SDS011;17580;50.850;4.504;2023-07-09T09:12:31;13.80;;;11.57;;
10191;SDS011;17580;50.850;4.504;2023-07-09T09:15:03;19.67;;;15.93;;
10191;SDS011;17580;50.850;4.504;2023-07-09T09:17:38;12.60;;;11.30;;
10191;SDS011;17580;50.850;4.504;2023-07-09T09:20:08;15.83;;;12.73;;
10191;SDS011;17580;50.850;4.504;2023-07-09T09:22:40;11.67;;;10.47;;
10191;SDS011;17580;50.850;4.504;2023-07-09T09:25:16;13.40;;;12.03;;
10191;SDS011;17580;50.850;4.504;2023-07-09T09:27:49;13.53;;;11.53;;
10191;SDS011;17580;50.850;4.504;2023-07-09T09:30:16;14.63;;;11.47;;
10191;SDS011;17580;50.850;4.504;2023-07-09T09:32:47;13.25;;;11.25;;
10191;SDS011;17580;50.850;4.504;2023-07-09T09:35:25;14.35;;;12.85;;
10191;SDS011;17580;50.850;4.504;2023-07-09T09:37:54;15.10;;;11.55;;
10191;SDS011;17580;50.850;4.504;2023-07-09T09:40:24;15.45;;;13.82;;
10191;SDS011;17580;50.850;4.504;2023-07-09T09:42:52;12.02;;;10.82;;
10191;SDS011;17580;50.850;4.504;2023-07-09T09:45:25;11.80;;;10.60;;
10191;SDS011;17580;50.850;4.504;2023-07-09T09:47:57;13.02;;;11.55;;
10191;SDS011;17580;50.850;4.504;2023-07-09T09:50:27;12.00;;;9.73;;
10191;SDS011;17580;50.850;4.504;2023-07-09T09:52:58;12.50;;;11.30;;
10191;SDS011;17580;50.850;4.504;2023-07-09T09:55:28;12.73;;;11.32;;
10191;SDS011;17580;50.850;4.504;2023-07-09T09:57:57;12.88;;;11.68;;
10191;SDS011;17580;50.850;4.504;2023-07-09T10:00:25;10.85;;;9.85;;
10191;SDS011;17580;50.850;4.504;2023-07-09T10:02:57;11.65;;;10.45;;
10191;SDS011;17580;50.850;4.504;2023-07-09T10:05:27;12.70;;;10.50;;
10191;SDS011;17580;50.850;4.504;2023-07-09T10:07:59;12.85;;;11.75;;
10191;SDS011;17580;50.850;4.504;2023-07-09T10:10:32;12.10;;;10.93;;
10191;SDS011;17580;50.850;4.504;2023-07-09T10:13:01;12.48;;;11.35;;
10191;SDS011;17580;50.850;4.504;2023-07-09T10:15:34;14.27;;;12.80;;
10191;SDS011;17580;50.850;4.504;2023-07-09T10:18:10;16.02;;;14.15;;
10191;SDS011;17580;50.850;4.504;2023-07-09T10:20:51;11.90;;;10.70;;
10191;SDS011;17580;50.850;4.504;2023-07-09T10:23:28;12.35;;;11.15;;
10191;SDS011;17580;50.850;4.504;2023-07-09T10:26:01;15.30;;;13.88;;
10191;SDS011;17580;50.850;4.504;2023-07-09T10:28:43;18.70;;;16.70;;
10191;SDS011;17580;50.850;4.504;2023-07-09T10:31:28;17.20;;;15.43;;
10191;SDS011;17580;50.850;4.504;2023-07-09T10:34:05;13.10;;;11.70;;
10191;SDS011;17580;50.850;4.504;2023-07-09T10:36:45;15.82;;;14.07;;
10191;SDS011;17580;50.850;4.504;2023-07-09T10:39:31;14.43;;;12.95;;
10191;SDS011;17580;50.850;4.504;2023-07-09T10:42:02;14.30;;;12.02;;
10191;SDS011;17580;50.850;4.504;2023-07-09T10:44:32;14.00;;;11.10;;
10191;SDS011;17580;50.850;4.504;2023-07-09T10:47:02;15.68;;;14.05;;
10191;SDS011;17580;50.850;4.504;2023-07-09T10:49:33;15.07;;;10.93;;
10191;SDS011;17580;50.850;4.504;2023-07-09T10:52:06;12.17;;;10.70;;
10191;SDS011;17580;50.850;4.504;2023-07-09T10:54:39;10.83;;;9.80;;
10191;SDS011;17580;50.850;4.504;2023-07-09T10:57:16;11.27;;;10.17;;
10191;SDS011;17580;50.850;4.504;2023-07-09T10:59:48;11.97;;;10.43;;
10191;SDS011;17580;50.850;4.504;2023-07-09T11:02:18;11.33;;;10.23;;
10191;SDS011;17580;50.850;4.504;2023-07-09T11:04:49;8.53;;;7.73;;
10191;SDS011;17580;50.850;4.504;2023-07-09T11:07:22;8.50;;;7.07;;
10191;SDS011;17580;50.850;4.504;2023-07-09T11:09:52;7.90;;;7.10;;
10191;SDS011;17580;50.850;4.504;2023-07-09T11:12:24;9.00;;;7.50;;
10191;SDS011;17580;50.850;4.504;2023-07-09T11:14:55;7.40;;;6.70;;
10191;SDS011;17580;50.850;4.504;2023-07-09T11:17:26;8.30;;;7.60;;
10191;SDS011;17580;50.850;4.504;2023-07-09T11:19:54;6.80;;;6.10;;
10191;SDS011;17580;50.850;4.504;2023-07-09T11:22:26;8.03;;;6.73;;
10191;SDS011;17580;50.850;4.504;2023-07-09T11:25:08;10.20;;;7.07;;
10191;SDS011;17580;50.850;4.504;2023-07-09T11:30:28;8.03;;;5.30;;
10191;SDS011;17580;50.850;4.504;2023-07-09T11:32:56;7.93;;;5.80;;
10191;SDS011;17580;50.850;4.504;2023-07-09T11:35:26;5.50;;;5.03;;
10191;SDS011;17580;50.850;4.504;2023-07-09T11:37:56;7.37;;;5.97;;
10191;SDS011;17580;50.850;4.504;2023-07-09T11:40:33;4.47;;;4.17;;
10191;SDS011;17580;50.850;4.504;2023-07-09T11:43:00;6.57;;;5.00;;
10191;SDS011;17580;50.850;4.504;2023-07-09T11:45:28;4.90;;;4.50;;
10191;SDS011;17580;50.850;4.504;2023-07-09T11:48:00;5.43;;;4.93;;
10191;SDS011;17580;50.850;4.504;2023-07-09T11:50:37;11.23;;;6.20;;
10191;SDS011;17580;50.850;4.504;2023-07-09T11:53:14;4.90;;;4.10;;
10191;SDS011;17580;50.850;4.504;2023-07-09T11:55:51;11.73;;;5.30;;
10191;SDS011;17580;50.850;4.504;2023-07-09T11:58:18;4.00;;;3.70;;
10191;SDS011;17580;50.850;4.504;2023-07-09T12:00:46;4.40;;;4.00;;
10191;SDS011;17580;50.850;4.504;2023-07-09T12:03:17;4.30;;;3.63;;
10191;SDS011;17580;50.850;4.504;2023-07-09T12:05:47;4.00;;;3.60;;
10191;SDS011;17580;50.850;4.504;2023-07-09T12:08:18;6.10;;;3.50;;
10191;SDS011;17580;50.850;4.504;2023-07-09T12:10:49;4.23;;;3.80;;
10191;SDS011;17580;50.850;4.504;2023-07-09T12:13:16;4.70;;;4.30;;
10191;SDS011;17580;50.850;4.504;2023-07-09T12:15:43;4.30;;;3.87;;
10191;SDS011;17580;50.850;4.504;2023-07-09T12:18:10;6.73;;;4.10;;
10191;SDS011;17580;50.850;4.504;2023-07-09T12:20:39;4.27;;;3.87;;
10191;SDS011;17580;50.850;4.504;2023-07-09T12:23:11;4.27;;;3.97;;
10191;SDS011;17580;50.850;4.504;2023-07-09T12:25:47;5.13;;;3.83;;
10191;SDS011;17580;50.850;4.504;2023-07-09T12:28:15;4.33;;;3.83;;
10191;SDS011;17580;50.850;4.504;2023-07-09T12:30:44;5.33;;;4.83;;
10191;SDS011;17580;50.850;4.504;2023-07-09T12:33:14;4.73;;;4.23;;
10191;SDS011;17580;50.850;4.504;2023-07-09T12:35:43;5.00;;;4.40;;
10191;SDS011;17580;50.850;4.504;2023-07-09T12:38:15;5.60;;;5.07;;
10191;SDS011;17580;50.850;4.504;2023-07-09T12:40:46;7.27;;;5.03;;
10191;SDS011;17580;50.850;4.504;2023-07-09T12:43:16;4.93;;;4.47;;
10191;SDS011;17580;50.850;4.504;2023-07-09T12:45:46;5.43;;;4.93;;
10191;SDS011;17580;50.850;4.504;2023-07-09T12:48:13;5.80;;;4.63;;
10191;SDS011;17580;50.850;4.504;2023-07-09T12:50:40;5.20;;;4.80;;
10191;SDS011;17580;50.850;4.504;2023-07-09T12:53:15;5.50;;;4.23;;
10191;SDS011;17580;50.850;4.504;2023-07-09T12:55:45;4.07;;;3.67;;
10191;SDS011;17580;50.850;4.504;2023-07-09T12:58:16;6.60;;;5.90;;
10191;SDS011;17580;50.850;4.504;2023-07-09T13:00:50;5.67;;;5.17;;
10191;SDS011;17580;50.850;4.504;2023-07-09T13:03:19;5.70;;;5.17;;
10191;SDS011;17580;50.850;4.504;2023-07-09T13:05:51;5.67;;;4.60;;
10191;SDS011;17580;50.850;4.504;2023-07-09T13:08:20;4.90;;;4.47;;
10191;SDS011;17580;50.850;4.504;2023-07-09T13:10:49;5.10;;;4.37;;
10191;SDS011;17580;50.850;4.504;2023-07-09T13:13:18;4.70;;;4.30;;
10191;SDS011;17580;50.850;4.504;2023-07-09T13:15:48;4.87;;;4.47;;
10191;SDS011;17580;50.850;4.504;2023-07-09T13:18:17;5.93;;;5.33;;
10191;SDS011;17580;50.850;4.504;2023-07-09T13:20:44;6.20;;;5.03;;
10191;SDS011;17580;50.850;4.504;2023-07-09T13:23:14;6.00;;;5.50;;
10191;SDS011;17580;50.850;4.504;2023-07-09T13:25:42;5.53;;;5.07;;
10191;SDS011;17580;50.850;4.504;2023-07-09T13:28:13;8.03;;;6.20;;
10191;SDS011;17580;50.850;4.504;2023-07-09T13:30:45;7.63;;;6.03;;
10191;SDS011;17580;50.850;4.504;2023-07-09T13:33:13;5.77;;;5.27;;
10191;SDS011;17580;50.850;4.504;2023-07-09T13:35:40;7.93;;;5.63;;
10191;SDS011;17580;50.850;4.504;2023-07-09T13:38:13;5.63;;;5.17;;
10191;SDS011;17580;50.850;4.504;2023-07-09T13:40:42;5.97;;;5.37;;
10191;SDS011;17580;50.850;4.504;2023-07-09T13:43:19;6.57;;;5.30;;
10191;SDS011;17580;50.850;4.504;2023-07-09T13:45:51;7.07;;;6.07;;
10191;SDS011;17580;50.850;4.504;2023-07-09T13:48:21;8.50;;;5.53;;
10191;SDS011;17580;50.850;4.504;2023-07-09T13:50:48;8.40;;;6.57;;
10191;SDS011;17580;50.850;4.504;2023-07-09T13:53:17;5.97;;;5.47;;
10191;SDS011;17580;50.850;4.504;2023-07-09T13:55:46;6.57;;;5.77;;
10191;SDS011;17580;50.850;4.504;2023-07-09T13:58:16;7.00;;;6.00;;
10191;SDS011;17580;50.850;4.504;2023-07-09T14:00:45;6.77;;;6.03;;
10191;SDS011;17580;50.850;4.504;2023-07-09T14:03:14;7.00;;;6.30;;
10191;SDS011;17580;50.850;4.504;2023-07-09T14:05:45;6.03;;;5.53;;
10191;SDS011;17580;50.850;4.504;2023-07-09T14:08:12;6.00;;;5.40;;
10191;SDS011;17580;50.850;4.504;2023-07-09T14:10:39;5.83;;;5.23;;
10191;SDS011;17580;50.850;4.504;2023-07-09T14:13:08;5.73;;;5.23;;
10191;SDS011;17580;50.850;4.504;2023-07-09T14:15:41;5.53;;;5.03;;
10191;SDS011;17580;50.850;4.504;2023-07-09T14:18:10;5.17;;;4.50;;
10191;SDS011;17580;50.850;4.504;2023-07-09T14:20:38;5.30;;;4.80;;
10191;SDS011;17580;50.850;4.504;2023-07-09T14:23:07;6.00;;;5.37;;
10191;SDS011;17580;50.850;4.504;2023-07-09T14:25:37;8.13;;;5.20;;
10191;SDS011;17580;50.850;4.504;2023-07-09T14:28:07;7.07;;;5.23;;
10191;SDS011;17580;50.850;4.504;2023-07-09T14:30:37;4.97;;;4.53;;
10191;SDS011;17580;50.850;4.504;2023-07-09T14:33:08;5.00;;;4.53;;
10191;SDS011;17580;50.850;4.504;2023-07-09T14:35:39;6.47;;;5.80;;
10191;SDS011;17580;50.850;4.504;2023-07-09T14:38:09;4.83;;;4.43;;
10191;SDS011;17580;50.850;4.504;2023-07-09T14:40:46;4.20;;;3.80;;
10191;SDS011;17580;50.850;4.504;2023-07-09T14:43:15;4.07;;;3.77;;
10191;SDS011;17580;50.850;4.504;2023-07-09T14:45:42;5.03;;;4.47;;
10191;SDS011;17580;50.850;4.504;2023-07-09T14:48:11;5.60;;;5.03;;
10191;SDS011;17580;50.850;4.504;2023-07-09T14:50:40;4.50;;;4.10;;
10191;SDS011;17580;50.850;4.504;2023-07-09T14:53:12;4.57;;;4.27;;
10191;SDS011;17580;50.850;4.504;2023-07-09T14:55:41;4.47;;;4.07;;
10191;SDS011;17580;50.850;4.504;2023-07-09T14:58:14;5.97;;;4.20;;